LRCL Airport Information

Runway Information
Runway 07 Length 6070 ft width 98 ft
Elevation 1036 ft Threshold 0 ft Heading 79
Runway 25 Length 6070 ft Width 98 ft
Elevation 1025 ft Threshold 0 ft Heading 259
Runway 08 Length 0 ft width 0 ft
Elevation 1036 ft Threshold 0 ft Heading 0
Runway 26 Length 0 ft Width 0 ft
Elevation 1025 ft Threshold 0 ft Heading 0
Airport Frequencies
Type APP Name APP Frequency 125.1 MHZ
Type GCA Name PRECISION Frequency 118.7 MHZ
Type TWR Name TWR Frequency 134.4 MHZ
Airport Navaids
Type VOR-DME Name Cluj Frequency 111200 KHZ
Airport Weather Information & NOTAM
ADDS - METARS form results

(0251 UTC 20 January 2019)
Data provider http://aviationweather.gov/metar/data/
 
METAR text: LRCL 200230Z 05004KT 2000 -SN BR OVC025 M00/M01 Q1016 R07/590294
Conditions at: LRCL (CLUJ-NAPOCA/SOME, RO) observed 0230 UTC 20 January 2019
Temperature: 0.0°C (32°F)
Dewpoint: -1.0°C (30°F) [RH = 93%]
Pressure (altimeter): 30.00 inches Hg (1016.0 mb)
Winds: from the NE (50 degrees) at 5 MPH (4 knots; 2.1 m/s)
Visibility: 1.24 miles (2.00 km)
Ceiling: 2500 feet AGL
Clouds: overcast cloud deck at 2500 feet AGL
Weather: -SN BR  (light snow, mist)

METAR text: LRCL 200200Z 07004KT 2500 -SN BR OVC030 M00/M01 Q1016 R07/29//95
Conditions at: LRCL (CLUJ-NAPOCA/SOME, RO) observed 0200 UTC 20 January 2019
Temperature: 0.0°C (32°F)
Dewpoint: -1.0°C (30°F) [RH = 93%]
Pressure (altimeter): 30.00 inches Hg (1016.0 mb)
Winds: from the ENE (70 degrees) at 5 MPH (4 knots; 2.1 m/s)
Visibility: 1.55 miles (2.49 km)
Ceiling: 3000 feet AGL
Clouds: overcast cloud deck at 3000 feet AGL
Weather: -SN BR  (light snow, mist)

Forecast for: LRCL (CLUJ-NAPOCA/SOME, RO)
Text: TAF LRCL 200200Z 2003/2012 09005KT 3000 -SN BR BKN015 OVC040
Forecast period: 0300 to 0600 UTC 20 January 2019
Forecast type: FROM: standard forecast or significant change
Winds: from the E (90 degrees) at 6 MPH (5 knots; 2.6 m/s)
Visibility: 1.86 miles (2.99 km)
Ceiling: 1500 feet AGL
Clouds: broken clouds at 1500 feet AGL
overcast cloud deck at 4000 feet AGL
Weather: -SN BR  (light snow, mist)
Text: TEMPO 2003/2006 1500 -SN BR BKN010 OVC030
Forecast period: 0300 to 0600 UTC 20 January 2019
Forecast type: TEMPORARY: The following changes expected for less than half the time period
Visibility: 0.93 miles (1.50 km)
Ceiling: 1000 feet AGL
Clouds: broken clouds at 1000 feet AGL
overcast cloud deck at 3000 feet AGL
Weather: -SN BR  (light snow, mist)
Text: BECMG 2006/2008 1500 SN BKN005 OVC025
Forecast period: 0600 to 1200 UTC 20 January 2019
Forecast type: BECOMING: Conditions expected to become as follows by 0800 UTC 20 January 2019
Winds: from the E (90 degrees) at 6 MPH (5 knots; 2.6 m/s)
Visibility: 0.93 miles (1.50 km)
Ceiling: 500 feet AGL
Clouds: broken clouds at 500 feet AGL
overcast cloud deck at 2500 feet AGL
Weather: SN  (moderate snow)